sensor_id;sensor_type;location;lat;lon;timestamp;P1;durP1;ratioP1;P2;durP2;ratioP2
16975;SDS011;8604;48.148;-1.786;2023-05-10T00:02:11;11.93;;;2.93;;
16975;SDS011;8604;48.148;-1.786;2023-05-10T00:04:39;13.80;;;2.70;;
16975;SDS011;8604;48.148;-1.786;2023-05-10T00:07:09;13.70;;;3.13;;
16975;SDS011;8604;48.148;-1.786;2023-05-10T00:09:37;12.93;;;3.27;;
16975;SDS011;8604;48.148;-1.786;2023-05-10T00:12:06;11.57;;;2.93;;
16975;SDS011;8604;48.148;-1.786;2023-05-10T00:14:35;17.03;;;3.10;;
16975;SDS011;8604;48.148;-1.786;2023-05-10T00:17:03;13.27;;;3.13;;
16975;SDS011;8604;48.148;-1.786;2023-05-10T00:19:31;16.97;;;3.10;;
16975;SDS011;8604;48.148;-1.786;2023-05-10T00:22:00;16.40;;;3.30;;
16975;SDS011;8604;48.148;-1.786;2023-05-10T00:24:31;13.03;;;3.27;;
16975;SDS011;8604;48.148;-1.786;2023-05-10T00:26:59;13.53;;;3.53;;
16975;SDS011;8604;48.148;-1.786;2023-05-10T00:29:30;17.03;;;3.90;;
16975;SDS011;8604;48.148;-1.786;2023-05-10T00:32:00;10.90;;;2.97;;
16975;SDS011;8604;48.148;-1.786;2023-05-10T00:34:29;15.07;;;3.30;;
16975;SDS011;8604;48.148;-1.786;2023-05-10T00:36:58;12.33;;;3.20;;
16975;SDS011;8604;48.148;-1.786;2023-05-10T00:39:27;20.57;;;3.50;;
16975;SDS011;8604;48.148;-1.786;2023-05-10T00:41:57;14.83;;;3.33;;
16975;SDS011;8604;48.148;-1.786;2023-05-10T00:44:27;13.63;;;3.30;;
16975;SDS011;8604;48.148;-1.786;2023-05-10T00:46:55;17.30;;;3.33;;
16975;SDS011;8604;48.148;-1.786;2023-05-10T00:49:24;14.07;;;3.17;;
16975;SDS011;8604;48.148;-1.786;2023-05-10T00:51:53;16.73;;;3.70;;
16975;SDS011;8604;48.148;-1.786;2023-05-10T00:54:21;13.20;;;3.03;;
16975;SDS011;8604;48.148;-1.786;2023-05-10T00:56:50;14.73;;;3.30;;
16975;SDS011;8604;48.148;-1.786;2023-05-10T00:59:20;13.60;;;3.13;;
16975;SDS011;8604;48.148;-1.786;2023-05-10T01:01:49;12.93;;;3.23;;
16975;SDS011;8604;48.148;-1.786;2023-05-10T01:04:18;13.13;;;3.20;;
16975;SDS011;8604;48.148;-1.786;2023-05-10T01:06:52;15.10;;;3.50;;
16975;SDS011;8604;48.148;-1.786;2023-05-10T01:09:21;14.57;;;3.17;;
16975;SDS011;8604;48.148;-1.786;2023-05-10T01:11:50;13.23;;;3.13;;
16975;SDS011;8604;48.148;-1.786;2023-05-10T01:14:18;15.83;;;3.43;;
16975;SDS011;8604;48.148;-1.786;2023-05-10T01:16:49;15.00;;;3.17;;
16975;SDS011;8604;48.148;-1.786;2023-05-10T01:19:18;11.97;;;3.30;;
16975;SDS011;8604;48.148;-1.786;2023-05-10T01:21:53;17.60;;;3.83;;
16975;SDS011;8604;48.148;-1.786;2023-05-10T01:24:38;16.40;;;3.33;;
16975;SDS011;8604;48.148;-1.786;2023-05-10T01:27:25;15.93;;;3.50;;
16975;SDS011;8604;48.148;-1.786;2023-05-10T01:33:32;15.97;;;3.60;;
16975;SDS011;8604;48.148;-1.786;2023-05-10T01:36:05;15.00;;;3.43;;
16975;SDS011;8604;48.148;-1.786;2023-05-10T01:38:41;13.60;;;3.40;;
16975;SDS011;8604;48.148;-1.786;2023-05-10T01:41:14;14.53;;;3.27;;
16975;SDS011;8604;48.148;-1.786;2023-05-10T01:43:48;15.50;;;3.60;;
16975;SDS011;8604;48.148;-1.786;2023-05-10T01:46:24;15.00;;;3.13;;
16975;SDS011;8604;48.148;-1.786;2023-05-10T01:48:59;15.60;;;3.80;;
16975;SDS011;8604;48.148;-1.786;2023-05-10T01:51:31;16.87;;;3.87;;
16975;SDS011;8604;48.148;-1.786;2023-05-10T01:54:07;11.60;;;3.07;;
16975;SDS011;8604;48.148;-1.786;2023-05-10T01:56:37;15.00;;;3.60;;
16975;SDS011;8604;48.148;-1.786;2023-05-10T01:59:09;18.90;;;3.60;;
16975;SDS011;8604;48.148;-1.786;2023-05-10T02:01:41;14.30;;;3.73;;
16975;SDS011;8604;48.148;-1.786;2023-05-10T02:04:11;14.00;;;3.50;;
16975;SDS011;8604;48.148;-1.786;2023-05-10T02:06:45;13.67;;;3.30;;
16975;SDS011;8604;48.148;-1.786;2023-05-10T02:09:15;15.37;;;3.40;;
16975;SDS011;8604;48.148;-1.786;2023-05-10T02:11:45;16.27;;;3.60;;
16975;SDS011;8604;48.148;-1.786;2023-05-10T02:14:16;18.30;;;3.80;;
16975;SDS011;8604;48.148;-1.786;2023-05-10T02:16:47;17.33;;;3.97;;
16975;SDS011;8604;48.148;-1.786;2023-05-10T02:19:19;18.63;;;3.57;;
16975;SDS011;8604;48.148;-1.786;2023-05-10T02:21:49;13.50;;;3.53;;
16975;SDS011;8604;48.148;-1.786;2023-05-10T02:24:19;17.80;;;4.13;;
16975;SDS011;8604;48.148;-1.786;2023-05-10T02:26:49;13.90;;;3.43;;
16975;SDS011;8604;48.148;-1.786;2023-05-10T02:29:18;17.13;;;3.80;;
16975;SDS011;8604;48.148;-1.786;2023-05-10T02:31:49;18.40;;;3.83;;
16975;SDS011;8604;48.148;-1.786;2023-05-10T02:34:22;15.13;;;4.00;;
16975;SDS011;8604;48.148;-1.786;2023-05-10T02:36:53;18.37;;;4.03;;
16975;SDS011;8604;48.148;-1.786;2023-05-10T02:39:23;16.60;;;4.17;;
16975;SDS011;8604;48.148;-1.786;2023-05-10T02:41:56;16.63;;;3.93;;
16975;SDS011;8604;48.148;-1.786;2023-05-10T02:44:26;17.37;;;4.07;;
16975;SDS011;8604;48.148;-1.786;2023-05-10T02:46:57;18.33;;;4.10;;
16975;SDS011;8604;48.148;-1.786;2023-05-10T02:49:30;16.87;;;3.97;;
16975;SDS011;8604;48.148;-1.786;2023-05-10T02:52:00;19.80;;;4.10;;
16975;SDS011;8604;48.148;-1.786;2023-05-10T02:54:35;17.67;;;3.80;;
16975;SDS011;8604;48.148;-1.786;2023-05-10T02:57:09;16.27;;;3.60;;
16975;SDS011;8604;48.148;-1.786;2023-05-10T02:59:41;15.47;;;3.83;;
16975;SDS011;8604;48.148;-1.786;2023-05-10T03:02:11;19.27;;;4.43;;
16975;SDS011;8604;48.148;-1.786;2023-05-10T03:04:42;19.13;;;4.00;;
16975;SDS011;8604;48.148;-1.786;2023-05-10T03:07:10;18.60;;;3.70;;
16975;SDS011;8604;48.148;-1.786;2023-05-10T03:09:40;18.93;;;4.30;;
16975;SDS011;8604;48.148;-1.786;2023-05-10T03:12:10;18.70;;;4.37;;
16975;SDS011;8604;48.148;-1.786;2023-05-10T03:14:45;14.30;;;3.87;;
16975;SDS011;8604;48.148;-1.786;2023-05-10T03:17:22;19.20;;;4.07;;
16975;SDS011;8604;48.148;-1.786;2023-05-10T03:20:01;21.53;;;4.83;;
16975;SDS011;8604;48.148;-1.786;2023-05-10T03:22:36;19.27;;;3.87;;
16975;SDS011;8604;48.148;-1.786;2023-05-10T03:25:06;15.77;;;4.00;;
16975;SDS011;8604;48.148;-1.786;2023-05-10T03:27:40;19.43;;;4.40;;
16975;SDS011;8604;48.148;-1.786;2023-05-10T03:30:11;16.17;;;3.70;;
16975;SDS011;8604;48.148;-1.786;2023-05-10T03:32:41;19.70;;;3.97;;
16975;SDS011;8604;48.148;-1.786;2023-05-10T03:35:11;15.63;;;4.10;;
16975;SDS011;8604;48.148;-1.786;2023-05-10T03:37:41;21.40;;;4.00;;
16975;SDS011;8604;48.148;-1.786;2023-05-10T03:40:09;21.00;;;4.43;;
16975;SDS011;8604;48.148;-1.786;2023-05-10T03:42:40;16.00;;;4.17;;
16975;SDS011;8604;48.148;-1.786;2023-05-10T03:45:09;19.20;;;4.60;;
16975;SDS011;8604;48.148;-1.786;2023-05-10T03:47:38;21.60;;;4.33;;
16975;SDS011;8604;48.148;-1.786;2023-05-10T03:50:07;17.27;;;3.90;;
16975;SDS011;8604;48.148;-1.786;2023-05-10T03:52:38;19.60;;;4.53;;
16975;SDS011;8604;48.148;-1.786;2023-05-10T03:55:07;17.23;;;4.47;;
16975;SDS011;8604;48.148;-1.786;2023-05-10T03:57:37;20.13;;;4.60;;
16975;SDS011;8604;48.148;-1.786;2023-05-10T04:00:06;15.50;;;3.70;;
16975;SDS011;8604;48.148;-1.786;2023-05-10T04:02:41;22.80;;;4.57;;
16975;SDS011;8604;48.148;-1.786;2023-05-10T04:05:16;14.57;;;3.67;;
16975;SDS011;8604;48.148;-1.786;2023-05-10T04:07:46;16.20;;;4.17;;
16975;SDS011;8604;48.148;-1.786;2023-05-10T04:10:15;19.13;;;4.33;;
16975;SDS011;8604;48.148;-1.786;2023-05-10T04:12:44;15.40;;;3.57;;
16975;SDS011;8604;48.148;-1.786;2023-05-10T04:15:12;18.13;;;4.40;;
16975;SDS011;8604;48.148;-1.786;2023-05-10T04:17:41;15.40;;;3.77;;
16975;SDS011;8604;48.148;-1.786;2023-05-10T04:20:10;18.67;;;3.60;;
16975;SDS011;8604;48.148;-1.786;2023-05-10T04:22:42;16.43;;;3.73;;
16975;SDS011;8604;48.148;-1.786;2023-05-10T04:25:15;16.43;;;4.00;;
16975;SDS011;8604;48.148;-1.786;2023-05-10T04:27:43;18.70;;;4.40;;
16975;SDS011;8604;48.148;-1.786;2023-05-10T04:30:12;16.63;;;4.03;;
16975;SDS011;8604;48.148;-1.786;2023-05-10T04:32:41;13.50;;;3.80;;
16975;SDS011;8604;48.148;-1.786;2023-05-10T04:35:11;15.10;;;4.10;;
16975;SDS011;8604;48.148;-1.786;2023-05-10T04:37:41;16.70;;;3.77;;
16975;SDS011;8604;48.148;-1.786;2023-05-10T04:40:11;12.63;;;3.30;;
16975;SDS011;8604;48.148;-1.786;2023-05-10T04:42:40;11.73;;;3.23;;
16975;SDS011;8604;48.148;-1.786;2023-05-10T04:45:09;11.93;;;3.37;;
16975;SDS011;8604;48.148;-1.786;2023-05-10T04:47:40;14.37;;;3.53;;
16975;SDS011;8604;48.148;-1.786;2023-05-10T04:50:09;13.23;;;3.47;;
16975;SDS011;8604;48.148;-1.786;2023-05-10T04:52:37;15.53;;;3.87;;
16975;SDS011;8604;48.148;-1.786;2023-05-10T04:55:05;14.97;;;3.67;;
16975;SDS011;8604;48.148;-1.786;2023-05-10T04:57:37;15.23;;;3.90;;
16975;SDS011;8604;48.148;-1.786;2023-05-10T05:00:06;19.07;;;3.77;;
16975;SDS011;8604;48.148;-1.786;2023-05-10T05:02:35;15.43;;;3.90;;
16975;SDS011;8604;48.148;-1.786;2023-05-10T05:05:04;15.33;;;3.90;;
16975;SDS011;8604;48.148;-1.786;2023-05-10T05:07:32;16.00;;;3.90;;
16975;SDS011;8604;48.148;-1.786;2023-05-10T05:10:01;14.10;;;3.50;;
16975;SDS011;8604;48.148;-1.786;2023-05-10T05:12:29;16.93;;;4.53;;
16975;SDS011;8604;48.148;-1.786;2023-05-10T05:14:59;20.93;;;4.57;;
16975;SDS011;8604;48.148;-1.786;2023-05-10T05:17:29;14.27;;;3.70;;
16975;SDS011;8604;48.148;-1.786;2023-05-10T05:19:58;16.77;;;4.33;;
16975;SDS011;8604;48.148;-1.786;2023-05-10T05:22:27;18.40;;;4.30;;
16975;SDS011;8604;48.148;-1.786;2023-05-10T05:24:55;14.53;;;3.53;;
16975;SDS011;8604;48.148;-1.786;2023-05-10T05:27:24;14.50;;;4.30;;
16975;SDS011;8604;48.148;-1.786;2023-05-10T05:29:54;17.87;;;4.73;;
16975;SDS011;8604;48.148;-1.786;2023-05-10T05:32:24;14.87;;;3.87;;
16975;SDS011;8604;48.148;-1.786;2023-05-10T05:34:53;19.73;;;4.43;;
16975;SDS011;8604;48.148;-1.786;2023-05-10T05:37:21;19.87;;;4.90;;
16975;SDS011;8604;48.148;-1.786;2023-05-10T05:39:50;16.07;;;4.20;;
16975;SDS011;8604;48.148;-1.786;2023-05-10T05:42:20;15.10;;;3.97;;
16975;SDS011;8604;48.148;-1.786;2023-05-10T05:44:49;20.80;;;4.83;;
16975;SDS011;8604;48.148;-1.786;2023-05-10T21:32:42;6.50;;;2.80;;
16975;SDS011;8604;48.148;-1.786;2023-05-10T21:35:11;5.17;;;2.47;;
16975;SDS011;8604;48.148;-1.786;2023-05-10T21:37:39;6.17;;;2.90;;
16975;SDS011;8604;48.148;-1.786;2023-05-10T21:40:08;8.53;;;2.93;;
16975;SDS011;8604;48.148;-1.786;2023-05-10T21:42:38;5.00;;;3.13;;
16975;SDS011;8604;48.148;-1.786;2023-05-10T21:45:06;3.87;;;2.40;;
16975;SDS011;8604;48.148;-1.786;2023-05-10T21:47:35;7.50;;;3.10;;
16975;SDS011;8604;48.148;-1.786;2023-05-10T21:50:05;5.47;;;2.50;;
16975;SDS011;8604;48.148;-1.786;2023-05-10T21:52:35;5.67;;;3.17;;
16975;SDS011;8604;48.148;-1.786;2023-05-10T21:55:04;7.10;;;3.13;;
16975;SDS011;8604;48.148;-1.786;2023-05-10T21:57:34;7.37;;;3.37;;
16975;SDS011;8604;48.148;-1.786;2023-05-10T22:00:03;7.67;;;3.40;;
16975;SDS011;8604;48.148;-1.786;2023-05-10T22:02:33;6.77;;;3.03;;
16975;SDS011;8604;48.148;-1.786;2023-05-10T22:05:01;6.03;;;3.00;;
16975;SDS011;8604;48.148;-1.786;2023-05-10T22:07:32;8.30;;;3.40;;
16975;SDS011;8604;48.148;-1.786;2023-05-10T22:10:00;8.20;;;3.13;;
16975;SDS011;8604;48.148;-1.786;2023-05-10T22:12:28;8.57;;;3.47;;
16975;SDS011;8604;48.148;-1.786;2023-05-10T22:14:57;8.03;;;3.17;;
16975;SDS011;8604;48.148;-1.786;2023-05-10T22:17:32;6.97;;;2.80;;
16975;SDS011;8604;48.148;-1.786;2023-05-10T22:20:00;7.90;;;2.87;;
16975;SDS011;8604;48.148;-1.786;2023-05-10T22:22:31;7.03;;;2.87;;
16975;SDS011;8604;48.148;-1.786;2023-05-10T22:25:00;5.87;;;2.50;;
16975;SDS011;8604;48.148;-1.786;2023-05-10T22:27:28;7.43;;;2.60;;
16975;SDS011;8604;48.148;-1.786;2023-05-10T22:29:56;6.40;;;2.50;;
16975;SDS011;8604;48.148;-1.786;2023-05-10T22:32:25;5.03;;;2.00;;
16975;SDS011;8604;48.148;-1.786;2023-05-10T22:34:53;4.83;;;1.83;;
16975;SDS011;8604;48.148;-1.786;2023-05-10T22:37:21;4.77;;;2.00;;
16975;SDS011;8604;48.148;-1.786;2023-05-10T22:39:51;5.27;;;1.97;;
16975;SDS011;8604;48.148;-1.786;2023-05-10T22:42:19;5.17;;;2.30;;
16975;SDS011;8604;48.148;-1.786;2023-05-10T22:44:48;5.10;;;2.00;;
16975;SDS011;8604;48.148;-1.786;2023-05-10T22:47:16;6.53;;;2.00;;
16975;SDS011;8604;48.148;-1.786;2023-05-10T22:49:44;5.87;;;2.00;;
16975;SDS011;8604;48.148;-1.786;2023-05-10T22:52:12;5.53;;;1.90;;
16975;SDS011;8604;48.148;-1.786;2023-05-10T22:54:41;6.73;;;2.13;;
16975;SDS011;8604;48.148;-1.786;2023-05-10T22:57:11;6.17;;;2.00;;
16975;SDS011;8604;48.148;-1.786;2023-05-10T22:59:39;5.63;;;1.90;;
16975;SDS011;8604;48.148;-1.786;2023-05-10T23:02:08;4.23;;;1.50;;
16975;SDS011;8604;48.148;-1.786;2023-05-10T23:04:36;4.67;;;1.80;;
16975;SDS011;8604;48.148;-1.786;2023-05-10T23:07:05;6.87;;;1.67;;
16975;SDS011;8604;48.148;-1.786;2023-05-10T23:09:33;8.77;;;2.27;;
16975;SDS011;8604;48.148;-1.786;2023-05-10T23:12:01;7.53;;;1.87;;
16975;SDS011;8604;48.148;-1.786;2023-05-10T23:14:31;7.00;;;1.93;;
16975;SDS011;8604;48.148;-1.786;2023-05-10T23:17:00;7.60;;;1.90;;
16975;SDS011;8604;48.148;-1.786;2023-05-10T23:19:28;5.40;;;1.90;;
16975;SDS011;8604;48.148;-1.786;2023-05-10T23:21:56;6.93;;;2.10;;
16975;SDS011;8604;48.148;-1.786;2023-05-10T23:24:25;12.20;;;2.30;;
16975;SDS011;8604;48.148;-1.786;2023-05-10T23:26:53;7.03;;;2.10;;
16975;SDS011;8604;48.148;-1.786;2023-05-10T23:29:21;8.30;;;1.80;;
16975;SDS011;8604;48.148;-1.786;2023-05-10T23:31:53;7.47;;;2.27;;
16975;SDS011;8604;48.148;-1.786;2023-05-10T23:34:21;5.93;;;1.93;;
16975;SDS011;8604;48.148;-1.786;2023-05-10T23:36:49;10.60;;;2.33;;
16975;SDS011;8604;48.148;-1.786;2023-05-10T23:39:18;5.23;;;2.10;;
16975;SDS011;8604;48.148;-1.786;2023-05-10T23:41:46;9.97;;;2.77;;
16975;SDS011;8604;48.148;-1.786;2023-05-10T23:44:15;7.27;;;2.10;;
16975;SDS011;8604;48.148;-1.786;2023-05-10T23:46:43;8.13;;;2.30;;
16975;SDS011;8604;48.148;-1.786;2023-05-10T23:49:13;8.47;;;2.50;;
16975;SDS011;8604;48.148;-1.786;2023-05-10T23:51:41;6.07;;;2.17;;
16975;SDS011;8604;48.148;-1.786;2023-05-10T23:54:09;7.30;;;2.37;;
16975;SDS011;8604;48.148;-1.786;2023-05-10T23:56:37;9.00;;;2.43;;
16975;SDS011;8604;48.148;-1.786;2023-05-10T23:59:06;9.20;;;2.30;;
